createdAt,value
2022-11-30T00:01:19.123Z,101541.28
2022-11-30T00:03:46.206Z,101540.72
2022-11-30T00:06:14.807Z,101542.50
2022-11-30T00:08:41.528Z,101550.34
2022-11-30T00:11:14.243Z,101542.31
2022-11-30T00:13:40.982Z,101541.28
2022-11-30T00:16:08.406Z,101541.41
2022-11-30T00:18:35.782Z,101551.25
2022-11-30T00:21:03.726Z,101541.03
2022-11-30T00:23:34.704Z,101544.72
2022-11-30T00:26:06.594Z,101543.09
2022-11-30T00:28:33.759Z,101537.66
2022-11-30T00:31:05.331Z,101542.09
2022-11-30T00:33:33.522Z,101546.19
2022-11-30T00:36:01.947Z,101549.13
2022-11-30T00:38:28.825Z,101547.13
2022-11-30T00:40:56.586Z,101545.72
2022-11-30T00:43:23.886Z,101540.84
2022-11-30T00:45:50.572Z,101539.41
2022-11-30T00:48:17.255Z,101534.34
2022-11-30T00:50:44.088Z,101540.25
2022-11-30T00:53:10.720Z,101546.81
2022-11-30T00:55:37.327Z,101547.06
2022-11-30T00:58:04.031Z,101540.25
2022-11-30T01:00:30.950Z,101544.84
2022-11-30T01:02:59.371Z,101541.22
2022-11-30T01:05:26.090Z,101539.50
2022-11-30T01:07:52.830Z,101538.38
2022-11-30T01:10:19.569Z,101549.50
2022-11-30T01:12:46.186Z,101541.75
2022-11-30T01:15:12.824Z,101538.47
2022-11-30T01:17:39.606Z,101546.44
2022-11-30T01:20:10.075Z,101554.53
2022-11-30T01:22:36.767Z,101556.09
2022-11-30T01:25:04.143Z,101551.00
2022-11-30T01:27:30.771Z,101558.16
2022-11-30T01:29:57.591Z,101555.34
2022-11-30T01:32:24.190Z,101552.59
2022-11-30T01:34:52.024Z,101552.78
2022-11-30T01:37:18.725Z,101551.03
2022-11-30T01:39:45.461Z,101548.19
2022-11-30T01:42:18.056Z,101548.97
2022-11-30T01:44:59.672Z,101553.34
2022-11-30T01:47:39.737Z,101555.94
2022-11-30T01:50:16.862Z,101555.22
2022-11-30T01:52:46.284Z,101558.00
2022-11-30T01:55:36.197Z,101560.31
2022-11-30T01:58:11.874Z,101562.22
2022-11-30T02:00:39.931Z,101567.94
2022-11-30T02:03:36.493Z,101571.88
2022-11-30T02:06:03.089Z,101572.00
2022-11-30T02:08:30.990Z,101572.72
2022-11-30T02:11:05.030Z,101568.91
2022-11-30T02:13:40.755Z,101575.47
2022-11-30T02:16:16.095Z,101577.75
2022-11-30T02:18:59.334Z,101581.00
2022-11-30T02:21:25.927Z,101581.69
2022-11-30T02:24:10.601Z,101575.78
2022-11-30T02:27:05.693Z,101571.25
2022-11-30T02:29:41.360Z,101567.97
2022-11-30T02:32:09.529Z,101565.94
2022-11-30T02:34:37.642Z,101563.88
2022-11-30T02:37:05.943Z,101566.81
2022-11-30T02:39:32.718Z,101565.50
2022-11-30T02:41:59.375Z,101553.66
2022-11-30T02:44:26.406Z,101563.78
2022-11-30T02:47:00.759Z,101563.16
2022-11-30T02:49:43.999Z,101561.28
2022-11-30T02:52:11.389Z,101562.94
2022-11-30T02:54:38.249Z,101565.31
2022-11-30T02:57:04.883Z,101571.59
2022-11-30T02:59:31.775Z,101557.63
2022-11-30T03:01:58.455Z,101565.22
2022-11-30T03:04:25.241Z,101564.19
2022-11-30T03:06:51.884Z,101574.25
2022-11-30T03:09:18.559Z,101572.22
2022-11-30T03:11:45.199Z,101566.00
2022-11-30T03:14:11.865Z,101575.84
2022-11-30T03:16:38.739Z,101570.34
2022-11-30T03:19:05.679Z,101576.63
2022-11-30T03:21:32.544Z,101573.06
2022-11-30T03:23:59.163Z,101572.00
2022-11-30T03:26:25.823Z,101578.66
2022-11-30T03:28:52.510Z,101576.22
2022-11-30T03:31:19.240Z,101575.19
2022-11-30T03:33:45.921Z,101582.75
2022-11-30T03:36:12.918Z,101584.53
2022-11-30T03:38:39.916Z,101573.00
2022-11-30T03:41:09.708Z,101576.47
2022-11-30T03:43:36.448Z,101579.09
2022-11-30T03:46:03.987Z,101572.03
2022-11-30T03:48:31.529Z,101573.34
2022-11-30T03:50:58.638Z,101575.00
2022-11-30T03:53:25.864Z,101584.63
2022-11-30T03:55:54.535Z,101576.50
2022-11-30T03:58:21.849Z,101581.16
2022-11-30T04:00:48.543Z,101583.44
2022-11-30T04:03:15.871Z,101587.81
2022-11-30T04:05:43.325Z,101591.16
2022-11-30T04:08:09.963Z,101598.50
2022-11-30T04:10:36.699Z,101593.25
2022-11-30T04:13:03.391Z,101597.69
2022-11-30T04:15:30.132Z,101596.94
2022-11-30T04:17:56.793Z,101597.22
2022-11-30T04:20:23.532Z,101600.88
2022-11-30T04:22:50.229Z,101602.63
2022-11-30T04:25:16.908Z,101602.19
2022-11-30T04:27:46.396Z,101602.75
2022-11-30T04:30:13.524Z,101604.91
2022-11-30T04:32:40.139Z,101613.84
2022-11-30T04:35:07.051Z,101615.84
2022-11-30T04:37:33.717Z,101614.69
2022-11-30T04:40:00.369Z,101620.22
2022-11-30T04:42:27.008Z,101619.97
2022-11-30T04:44:53.606Z,101615.16
2022-11-30T04:47:20.165Z,101619.47
2022-11-30T04:49:46.731Z,101625.84
2022-11-30T04:52:13.442Z,101623.13
2022-11-30T04:54:40.045Z,101623.44
2022-11-30T04:57:06.892Z,101624.38
2022-11-30T04:59:33.522Z,101615.44
2022-11-30T05:02:00.175Z,101633.72
2022-11-30T05:04:26.902Z,101624.25
2022-11-30T05:06:53.620Z,101626.31
2022-11-30T05:09:20.210Z,101629.00
2022-11-30T05:11:48.563Z,101625.63
2022-11-30T05:14:15.323Z,101625.28
2022-11-30T05:16:41.962Z,101622.84
2022-11-30T05:19:09.980Z,101624.25
2022-11-30T05:21:40.051Z,101622.91
2022-11-30T05:24:09.867Z,101627.06
2022-11-30T05:26:37.046Z,101630.16
2022-11-30T05:29:06.802Z,101631.13
2022-11-30T05:31:33.915Z,101627.25
2022-11-30T05:34:00.503Z,101636.06
2022-11-30T05:36:27.422Z,101634.38
2022-11-30T05:38:54.042Z,101636.06
2022-11-30T05:41:20.625Z,101632.44
2022-11-30T05:43:47.321Z,101635.97
2022-11-30T05:46:13.973Z,101632.97
2022-11-30T05:48:40.694Z,101635.53
2022-11-30T05:51:15.639Z,101637.97
2022-11-30T05:53:43.529Z,101633.44
2022-11-30T05:56:12.811Z,101633.97
2022-11-30T05:58:40.018Z,101632.69
2022-11-30T06:01:07.200Z,101639.34
2022-11-30T06:03:35.056Z,101641.38
2022-11-30T06:06:01.944Z,101647.03
2022-11-30T06:08:29.258Z,101649.66
2022-11-30T06:11:00.338Z,101650.31
2022-11-30T06:13:28.937Z,101648.72
2022-11-30T06:15:59.162Z,101646.91
2022-11-30T06:18:25.862Z,101644.38
2022-11-30T06:20:52.579Z,101643.13
2022-11-30T06:23:19.203Z,101637.31
2022-11-30T06:25:45.783Z,101637.34
2022-11-30T06:28:12.433Z,101648.22
2022-11-30T06:30:39.107Z,101651.44
2022-11-30T06:33:06.617Z,101645.84
2022-11-30T06:35:33.197Z,101650.09
2022-11-30T06:38:02.906Z,101651.84
2022-11-30T06:40:29.544Z,101641.59
2022-11-30T06:42:56.098Z,101647.28
2022-11-30T06:45:22.750Z,101649.81
2022-11-30T06:47:49.322Z,101650.44
2022-11-30T06:50:15.995Z,101657.84
2022-11-30T06:52:42.574Z,101651.25
2022-11-30T06:55:09.617Z,101656.28
2022-11-30T06:57:36.196Z,101654.25
2022-11-30T07:00:03.854Z,101653.94
2022-11-30T07:02:30.449Z,101655.31
2022-11-30T07:04:57.044Z,101657.94
2022-11-30T07:07:23.644Z,101657.09
2022-11-30T07:09:51.043Z,101659.97
2022-11-30T07:12:18.157Z,101655.06
2022-11-30T07:14:44.961Z,101658.66
2022-11-30T07:17:11.855Z,101659.25
2022-11-30T07:19:38.413Z,101662.59
2022-11-30T07:22:05.095Z,101668.38
2022-11-30T07:24:50.442Z,101664.31
2022-11-30T07:27:17.206Z,101676.50
2022-11-30T07:29:43.949Z,101673.56
2022-11-30T07:32:10.605Z,101674.06
2022-11-30T07:34:37.264Z,101674.78
2022-11-30T07:37:03.814Z,101683.75
2022-11-30T07:39:30.430Z,101685.72
2022-11-30T07:41:57.069Z,101687.66
2022-11-30T07:44:28.188Z,101688.25
2022-11-30T07:46:55.015Z,101687.94
2022-11-30T07:49:21.585Z,101686.84
2022-11-30T07:51:48.169Z,101691.50
2022-11-30T07:54:14.838Z,101693.19
2022-11-30T07:56:41.477Z,101692.81
2022-11-30T07:59:08.142Z,101698.84
2022-11-30T08:01:34.959Z,101696.66
2022-11-30T08:04:01.797Z,101703.63
2022-11-30T08:06:30.425Z,101717.22
2022-11-30T08:09:02.347Z,101712.03
2022-11-30T08:11:32.766Z,101713.69
2022-11-30T08:14:00.146Z,101709.53
2022-11-30T08:16:28.885Z,101712.63
2022-11-30T08:18:56.896Z,101716.44
2022-11-30T08:21:24.061Z,101715.91
2022-11-30T08:23:56.531Z,101720.22
2022-11-30T08:26:24.592Z,101718.84
2022-11-30T08:28:52.649Z,101722.06
2022-11-30T08:31:22.313Z,101718.94
2022-11-30T08:33:49.919Z,101717.72
2022-11-30T08:36:21.502Z,101723.28
2022-11-30T08:38:48.687Z,101730.38
2022-11-30T08:41:21.459Z,101734.22
2022-11-30T08:43:48.977Z,101750.00
2022-11-30T08:46:49.097Z,101750.13
2022-11-30T08:54:42.768Z,101750.47
2022-11-30T08:57:09.636Z,101752.78
2022-11-30T08:59:36.387Z,101762.78
2022-11-30T09:02:03.309Z,101757.53
2022-11-30T09:04:30.161Z,101765.31
2022-11-30T09:06:59.059Z,101766.78
2022-11-30T09:09:25.994Z,101767.19
2022-11-30T09:11:52.643Z,101764.50
2022-11-30T09:14:19.261Z,101765.78
2022-11-30T09:16:45.898Z,101770.06
2022-11-30T09:19:12.729Z,101771.03
2022-11-30T09:21:39.481Z,101761.94
2022-11-30T09:24:06.304Z,101772.19
2022-11-30T09:26:32.930Z,101767.84
2022-11-30T09:29:00.133Z,101771.38
2022-11-30T09:31:26.759Z,101766.28
2022-11-30T09:33:56.168Z,101769.91
2022-11-30T09:36:23.908Z,101757.34
2022-11-30T09:38:50.678Z,101772.94
2022-11-30T09:41:46.471Z,101769.97
2022-11-30T09:44:24.819Z,101771.13
2022-11-30T09:47:12.959Z,101766.75
2022-11-30T09:49:48.781Z,101764.06
2022-11-30T09:52:30.942Z,101760.72
2022-11-30T09:54:57.952Z,101763.56
2022-11-30T09:57:31.807Z,101762.66
2022-11-30T10:00:00.475Z,101763.03
2022-11-30T10:02:32.397Z,101754.94
2022-11-30T10:04:59.751Z,101765.66
2022-11-30T10:07:42.731Z,101763.44
2022-11-30T10:10:37.958Z,101758.69
2022-11-30T10:13:17.091Z,101755.03
2022-11-30T10:16:02.440Z,101765.69
2022-11-30T10:18:51.044Z,101753.34
2022-11-30T10:21:26.723Z,101750.38
2022-11-30T10:24:05.152Z,101747.97
2022-11-30T10:26:41.578Z,101746.31
2022-11-30T10:29:14.179Z,101747.38
2022-11-30T10:31:41.876Z,101747.25
2022-11-30T10:34:17.459Z,101758.22
2022-11-30T10:36:53.900Z,101761.25
2022-11-30T10:39:30.184Z,101759.44
2022-11-30T10:42:10.394Z,101760.94
2022-11-30T10:44:43.999Z,101756.72
2022-11-30T10:47:16.315Z,101756.88
2022-11-30T10:49:47.689Z,101757.47
2022-11-30T10:52:19.272Z,101752.50
2022-11-30T10:54:46.562Z,101752.31
2022-11-30T10:57:14.497Z,101759.69
2022-11-30T10:59:53.710Z,101755.34
2022-11-30T11:02:49.881Z,101746.63
2022-11-30T11:05:19.800Z,101748.09
2022-11-30T11:08:06.897Z,101747.72
2022-11-30T11:10:45.476Z,101743.69
2022-11-30T11:13:35.428Z,101744.44
2022-11-30T11:16:02.705Z,101741.47
2022-11-30T11:18:31.773Z,101742.88
2022-11-30T11:21:08.147Z,101735.53
2022-11-30T11:23:42.291Z,101742.75
2022-11-30T11:26:24.459Z,101747.28
2022-11-30T11:28:53.443Z,101743.69
2022-11-30T11:31:32.271Z,101741.84
2022-11-30T11:33:58.935Z,101750.88
2022-11-30T11:36:30.817Z,101745.41
2022-11-30T11:38:58.396Z,101753.16
2022-11-30T11:41:36.095Z,101753.91
2022-11-30T11:44:11.854Z,101746.06
2022-11-30T11:46:53.682Z,101753.19
2022-11-30T11:49:28.541Z,101749.31
2022-11-30T11:52:11.459Z,101758.84
2022-11-30T11:54:51.603Z,101753.59
2022-11-30T11:57:21.780Z,101749.59
2022-11-30T11:59:55.568Z,101757.72
2022-11-30T12:02:52.675Z,101749.38
2022-11-30T12:05:29.404Z,101747.88
2022-11-30T12:08:38.032Z,101745.78
2022-11-30T12:11:20.063Z,101748.53
2022-11-30T12:13:47.482Z,101753.50
2022-11-30T12:16:39.093Z,101749.69
2022-11-30T12:19:20.483Z,101749.38
2022-11-30T12:21:58.986Z,101752.75
2022-11-30T12:24:40.880Z,101757.88
2022-11-30T12:27:53.540Z,101753.50
2022-11-30T12:30:39.957Z,101745.63
2022-11-30T12:33:29.149Z,101740.78
2022-11-30T12:36:38.797Z,101754.94
2022-11-30T12:39:15.595Z,101748.09
2022-11-30T12:41:43.245Z,101752.84
2022-11-30T12:44:28.840Z,101753.16
2022-11-30T12:47:50.152Z,101749.47
2022-11-30T12:50:44.224Z,101762.75
2022-11-30T12:53:29.182Z,101756.56
2022-11-30T12:56:15.054Z,101755.63
2022-11-30T12:58:50.793Z,101753.53
2022-11-30T13:01:35.726Z,101756.28
2022-11-30T13:04:21.397Z,101763.50
2022-11-30T13:06:53.614Z,101763.50
2022-11-30T13:09:30.737Z,101761.28
2022-11-30T13:12:02.185Z,101756.66
2022-11-30T13:14:29.842Z,101757.81
2022-11-30T13:17:01.632Z,101759.47
2022-11-30T13:19:49.884Z,101763.72
2022-11-30T13:22:23.740Z,101766.56
2022-11-30T13:25:07.614Z,101764.38
2022-11-30T13:27:43.299Z,101765.28
2022-11-30T13:30:43.096Z,101752.81
2022-11-30T13:33:37.772Z,101765.22
2022-11-30T13:36:31.623Z,101760.94
2022-11-30T13:39:13.514Z,101763.78
2022-11-30T13:41:50.897Z,101764.97
2022-11-30T13:44:32.267Z,101764.97
2022-11-30T13:47:01.217Z,101756.34
2022-11-30T13:49:34.528Z,101764.19
2022-11-30T13:52:21.972Z,101760.88
2022-11-30T13:54:51.141Z,101762.88
2022-11-30T13:57:24.329Z,101766.13
2022-11-30T13:59:51.768Z,101768.94
2022-11-30T14:02:41.907Z,101770.03
2022-11-30T14:05:17.918Z,101763.88
2022-11-30T14:07:45.273Z,101766.53
2022-11-30T14:10:27.171Z,101769.97
2022-11-30T14:12:58.160Z,101776.38
2022-11-30T14:15:39.453Z,101775.47
2022-11-30T14:18:09.086Z,101770.16
2022-11-30T14:20:46.470Z,101773.63
2022-11-30T14:23:32.517Z,101774.97
2022-11-30T14:26:11.610Z,101778.00
2022-11-30T14:28:52.252Z,101778.63
2022-11-30T14:31:23.221Z,101778.25
2022-11-30T14:34:01.066Z,101786.13
2022-11-30T14:36:34.440Z,101784.16
2022-11-30T14:39:01.263Z,101793.63
2022-11-30T14:41:30.129Z,101794.28
2022-11-30T14:44:11.102Z,101792.81
2022-11-30T14:46:37.743Z,101797.22
2022-11-30T14:49:13.695Z,101791.78
2022-11-30T14:51:42.804Z,101794.84
2022-11-30T14:54:40.054Z,101802.59
2022-11-30T14:57:14.934Z,101798.53
2022-11-30T14:59:54.461Z,101799.25
2022-11-30T15:02:26.641Z,101800.22
2022-11-30T15:04:54.576Z,101794.00
2022-11-30T15:07:22.193Z,101792.06
2022-11-30T15:09:52.174Z,101794.91
2022-11-30T15:12:20.905Z,101787.84
2022-11-30T15:15:13.945Z,101797.88
2022-11-30T15:17:53.965Z,101795.75
2022-11-30T15:20:28.310Z,101796.50
2022-11-30T15:22:57.066Z,101800.00
2022-11-30T15:25:29.049Z,101798.06
2022-11-30T15:27:56.190Z,101803.69
2022-11-30T15:30:22.776Z,101803.69
2022-11-30T15:32:52.341Z,101810.84
2022-11-30T15:35:21.528Z,101814.63
2022-11-30T15:37:48.430Z,101806.63
2022-11-30T15:40:21.969Z,101810.84
2022-11-30T15:42:49.384Z,101818.59
2022-11-30T15:45:26.595Z,101821.88
2022-11-30T15:47:54.915Z,101818.41
2022-11-30T15:50:30.666Z,101820.47
2022-11-30T15:53:02.917Z,101827.03
2022-11-30T15:55:47.446Z,101834.47
2022-11-30T15:58:29.315Z,101815.97
2022-11-30T16:01:05.621Z,101822.75
2022-11-30T16:03:34.401Z,101824.63
2022-11-30T16:06:04.906Z,101828.22
2022-11-30T16:08:32.378Z,101821.81
2022-11-30T16:11:03.113Z,101828.84
2022-11-30T16:13:32.947Z,101824.41
2022-11-30T16:16:00.922Z,101832.63
2022-11-30T16:18:28.392Z,101832.78
2022-11-30T16:20:59.801Z,101837.88
2022-11-30T16:23:27.067Z,101838.19
2022-11-30T16:25:54.018Z,101835.16
2022-11-30T16:28:21.886Z,101839.25
2022-11-30T16:30:49.077Z,101845.03
2022-11-30T16:33:21.363Z,101838.94
2022-11-30T16:35:54.865Z,101835.44
2022-11-30T16:38:22.116Z,101833.84
2022-11-30T16:40:48.797Z,101837.97
2022-11-30T16:43:15.515Z,101843.16
2022-11-30T16:45:46.149Z,101845.03
2022-11-30T16:48:14.186Z,101843.50
2022-11-30T16:50:41.394Z,101839.63
2022-11-30T16:53:11.698Z,101835.72
2022-11-30T16:55:38.579Z,101842.84
2022-11-30T16:58:05.504Z,101841.53
2022-11-30T17:00:32.746Z,101851.72
2022-11-30T17:03:03.928Z,101848.44
2022-11-30T17:05:31.615Z,101840.91
2022-11-30T17:07:58.303Z,101845.00
2022-11-30T17:10:24.933Z,101849.78
2022-11-30T17:12:51.630Z,101856.50
2022-11-30T17:15:21.279Z,101861.75
2022-11-30T17:17:48.292Z,101864.97
2022-11-30T17:20:16.183Z,101858.16
2022-11-30T17:22:43.947Z,101870.81
2022-11-30T17:25:19.043Z,101868.59
2022-11-30T17:27:45.996Z,101868.34
2022-11-30T17:30:16.456Z,101866.44
2022-11-30T17:32:43.286Z,101862.03
2022-11-30T17:35:10.282Z,101869.66
2022-11-30T17:37:36.820Z,101866.31
2022-11-30T17:40:04.829Z,101861.94
2022-11-30T17:42:31.459Z,101868.50
2022-11-30T17:44:58.111Z,101867.28
2022-11-30T17:47:24.986Z,101878.44
2022-11-30T17:49:51.587Z,101874.81
2022-11-30T17:52:18.274Z,101874.25
2022-11-30T17:54:45.122Z,101881.34
2022-11-30T17:57:11.933Z,101886.00
2022-11-30T17:59:38.594Z,101886.41
2022-11-30T18:02:05.299Z,101888.31
2022-11-30T18:04:32.010Z,101888.53
2022-11-30T18:06:58.615Z,101884.69
2022-11-30T18:09:25.349Z,101895.41
2022-11-30T18:11:52.035Z,101893.88
2022-11-30T18:14:18.576Z,101887.97
2022-11-30T18:16:45.395Z,101893.91
2022-11-30T18:19:13.272Z,101893.31
2022-11-30T18:21:41.258Z,101888.78
2022-11-30T18:24:08.213Z,101903.34
2022-11-30T18:26:35.574Z,101892.81
2022-11-30T18:29:02.828Z,101901.59
2022-11-30T18:31:30.812Z,101894.63
2022-11-30T18:34:04.412Z,101895.25
2022-11-30T18:36:32.406Z,101902.25
2022-11-30T18:38:59.077Z,101901.84
2022-11-30T18:41:26.343Z,101906.13
2022-11-30T18:43:53.833Z,101915.41
2022-11-30T18:46:20.820Z,101915.56
2022-11-30T18:48:51.659Z,101905.38
2022-11-30T18:51:23.999Z,101906.53
2022-11-30T18:53:57.721Z,101901.00
2022-11-30T18:56:26.630Z,101901.78
2022-11-30T18:59:00.875Z,101912.94
2022-11-30T19:01:28.616Z,101909.31
2022-11-30T19:03:57.333Z,101909.22
2022-11-30T19:06:32.625Z,101910.56
2022-11-30T19:09:02.040Z,101917.88
2022-11-30T19:11:28.615Z,101913.25
2022-11-30T19:13:57.243Z,101915.50
2022-11-30T19:16:24.996Z,101917.47
2022-11-30T19:18:52.790Z,101915.41
2022-11-30T19:21:22.013Z,101917.78
2022-11-30T19:23:49.308Z,101925.09
2022-11-30T19:26:16.259Z,101923.53
2022-11-30T19:28:44.056Z,101929.03
2022-11-30T19:31:16.480Z,101925.59
2022-11-30T19:33:45.700Z,101925.53
2022-11-30T19:36:31.334Z,101938.19
2022-11-30T19:38:59.582Z,101933.81
2022-11-30T19:41:27.030Z,101933.22
2022-11-30T19:44:01.041Z,101929.63
2022-11-30T19:46:31.716Z,101935.94
2022-11-30T19:49:00.736Z,101940.81
2022-11-30T19:51:28.315Z,101940.03
2022-11-30T19:53:59.264Z,101946.84
2022-11-30T19:56:26.851Z,101942.00
2022-11-30T19:58:53.566Z,101941.50
2022-11-30T20:01:25.299Z,101941.50
2022-11-30T20:03:54.172Z,101942.22
2022-11-30T20:06:23.450Z,101945.66
2022-11-30T20:08:49.973Z,101945.09
2022-11-30T20:11:16.669Z,101949.88
2022-11-30T20:13:43.978Z,101942.19
2022-11-30T20:16:12.909Z,101945.41
2022-11-30T20:18:45.536Z,101944.31
2022-11-30T20:21:17.893Z,101955.22
2022-11-30T20:23:47.073Z,101949.44
2022-11-30T20:26:14.385Z,101947.19
2022-11-30T20:28:41.232Z,101953.97
2022-11-30T20:31:09.241Z,101955.91
2022-11-30T20:33:36.734Z,101957.63
2022-11-30T20:36:08.702Z,101959.13
2022-11-30T20:38:35.622Z,101956.00
2022-11-30T20:41:02.549Z,101961.50
2022-11-30T20:43:29.692Z,101958.78
2022-11-30T20:45:56.855Z,101969.50
2022-11-30T20:48:23.531Z,101959.03
2022-11-30T20:51:21.717Z,101965.13
2022-11-30T20:53:37.181Z,101963.88
2022-11-30T20:56:04.137Z,101958.97
2022-11-30T20:58:30.998Z,101953.63
2022-11-30T21:00:59.445Z,101956.59
2022-11-30T21:03:26.643Z,101945.41
2022-11-30T21:05:53.337Z,101950.91
2022-11-30T21:08:19.985Z,101961.91
2022-11-30T21:10:46.622Z,101957.31
2022-11-30T21:13:13.428Z,101963.41
2022-11-30T21:15:40.048Z,101970.22
2022-11-30T21:18:06.776Z,101968.47
2022-11-30T21:20:35.755Z,101961.50
2022-11-30T21:23:02.443Z,101955.19
2022-11-30T21:25:29.119Z,101964.22
2022-11-30T21:27:56.202Z,101967.34
2022-11-30T21:30:22.875Z,101967.09
2022-11-30T21:32:52.861Z,101953.44
2022-11-30T21:35:19.547Z,101960.50
2022-11-30T21:37:46.522Z,101955.19
2022-11-30T21:40:13.414Z,101960.91
2022-11-30T21:42:40.251Z,101962.97
2022-11-30T21:45:07.459Z,101968.81
2022-11-30T21:47:53.283Z,101968.06
2022-11-30T21:50:24.414Z,101964.63
2022-11-30T21:52:53.693Z,101963.78
2022-11-30T21:55:20.409Z,101969.88
2022-11-30T21:57:53.872Z,101965.00
2022-11-30T22:00:21.290Z,101966.72
2022-11-30T22:02:48.564Z,101966.81
2022-11-30T22:05:15.478Z,101959.50
2022-11-30T22:07:42.296Z,101957.69
2022-11-30T22:10:09.443Z,101963.94
2022-11-30T22:12:36.178Z,101956.16
2022-11-30T22:15:02.802Z,101961.50
2022-11-30T22:17:29.726Z,101959.69
2022-11-30T22:19:56.583Z,101966.38
2022-11-30T22:22:23.175Z,101956.88
2022-11-30T22:24:49.812Z,101956.72
2022-11-30T22:27:16.569Z,101956.25
2022-11-30T22:29:43.106Z,101955.88
2022-11-30T22:32:16.761Z,101958.03
2022-11-30T22:34:43.539Z,101954.81
2022-11-30T22:37:10.151Z,101955.59
2022-11-30T22:39:36.995Z,101947.69
2022-11-30T22:42:03.955Z,101962.03
2022-11-30T22:44:30.633Z,101957.78
2022-11-30T22:46:57.927Z,101946.16
2022-11-30T22:49:24.748Z,101947.59
2022-11-30T22:51:51.865Z,101961.81
2022-11-30T22:54:18.588Z,101950.56
2022-11-30T22:56:46.460Z,101952.72
2022-11-30T22:59:14.226Z,101960.59
2022-11-30T23:01:46.422Z,101951.75
2022-11-30T23:04:16.057Z,101960.72
2022-11-30T23:06:43.769Z,101955.75
2022-11-30T23:09:16.315Z,101952.56
2022-11-30T23:11:43.259Z,101958.56
2022-11-30T23:14:12.014Z,101958.66
2022-11-30T23:16:39.396Z,101959.84
2022-11-30T23:19:06.828Z,101962.00
2022-11-30T23:21:40.979Z,101964.06
2022-11-30T23:24:12.368Z,101961.28
2022-11-30T23:26:39.202Z,101966.59
2022-11-30T23:29:08.693Z,101965.25
2022-11-30T23:31:37.670Z,101959.50
2022-11-30T23:34:09.617Z,101964.38
2022-11-30T23:36:36.433Z,101967.25
2022-11-30T23:39:06.223Z,101967.28
2022-11-30T23:41:33.052Z,101962.81
2022-11-30T23:43:59.863Z,101967.59
2022-11-30T23:46:26.660Z,101975.78
2022-11-30T23:48:54.941Z,101976.97
2022-11-30T23:51:21.966Z,101972.00
2022-11-30T23:53:48.898Z,101966.44
2022-11-30T23:56:18.067Z,101977.78
2022-11-30T23:58:45.240Z,101975.88
